createdAt,value
2022-11-03T00:02:20.478Z,14.44
2022-11-03T00:04:48.966Z,14.43
2022-11-03T00:07:26.235Z,14.39
2022-11-03T00:09:54.499Z,14.36
2022-11-03T00:12:22.881Z,14.31
2022-11-03T00:14:53.596Z,14.27
2022-11-03T00:17:21.921Z,14.26
2022-11-03T00:19:50.226Z,14.25
2022-11-03T00:22:18.560Z,14.29
2022-11-03T00:24:47.318Z,14.30
2022-11-03T00:27:15.790Z,14.31
2022-11-03T00:29:44.156Z,14.28
2022-11-03T00:32:12.648Z,14.26
2022-11-03T00:34:41.772Z,14.26
2022-11-03T00:37:10.065Z,14.22
2022-11-03T00:39:38.416Z,14.19
2022-11-03T00:42:06.880Z,14.18
2022-11-03T00:44:35.519Z,14.09
2022-11-03T00:47:03.955Z,14.02
2022-11-03T00:49:32.315Z,14.00
2022-11-03T00:52:00.555Z,13.95
2022-11-03T00:54:31.856Z,13.92
2022-11-03T00:57:00.316Z,13.87
2022-11-03T00:59:31.355Z,13.81
2022-11-03T01:01:59.878Z,13.73
2022-11-03T01:04:46.518Z,13.62
2022-11-03T01:07:16.777Z,13.54
2022-11-03T01:09:45.298Z,13.51
2022-11-03T01:12:19.386Z,13.42
2022-11-03T01:14:50.875Z,13.38
2022-11-03T01:17:22.555Z,13.30
2022-11-03T01:19:51.045Z,13.28
2022-11-03T01:22:20.217Z,13.26
2022-11-03T01:24:49.290Z,13.22
2022-11-03T01:27:23.136Z,13.16
2022-11-03T01:29:51.514Z,13.15
2022-11-03T01:32:20.001Z,13.13
2022-11-03T01:34:48.539Z,13.12
2022-11-03T01:37:16.821Z,13.11
2022-11-03T01:39:45.080Z,13.10
2022-11-03T01:42:15.452Z,13.04
2022-11-03T01:44:54.897Z,12.98
2022-11-03T01:47:30.893Z,12.90
2022-11-03T01:50:06.890Z,12.82
2022-11-03T01:52:48.273Z,12.74
2022-11-03T01:55:45.436Z,12.67
2022-11-03T01:58:24.639Z,12.64
2022-11-03T02:00:59.488Z,12.60
2022-11-03T02:03:30.396Z,12.56
2022-11-03T02:05:59.446Z,12.51
2022-11-03T02:08:31.209Z,12.49
2022-11-03T02:10:59.846Z,12.44
2022-11-03T02:13:31.345Z,12.36
2022-11-03T02:16:01.441Z,12.34
2022-11-03T02:18:35.705Z,12.33
2022-11-03T02:21:28.336Z,12.28
2022-11-03T02:24:16.737Z,12.26
2022-11-03T02:26:49.235Z,12.22
2022-11-03T02:29:17.957Z,12.19
2022-11-03T02:32:02.161Z,12.15
2022-11-03T02:34:56.091Z,12.14
2022-11-03T02:37:33.491Z,12.10
2022-11-03T02:40:09.870Z,12.07
2022-11-03T02:42:40.653Z,12.05
2022-11-03T02:45:16.480Z,12.03
2022-11-03T02:47:49.115Z,12.01
2022-11-03T02:50:17.566Z,12.00
2022-11-03T02:52:53.439Z,11.95
2022-11-03T02:55:24.485Z,11.93
2022-11-03T02:58:01.439Z,11.88
2022-11-03T03:00:32.961Z,11.85
2022-11-03T03:03:10.376Z,11.80
2022-11-03T03:05:42.241Z,11.78
2022-11-03T03:08:15.856Z,11.77
2022-11-03T03:10:47.962Z,11.77
2022-11-03T03:13:20.319Z,11.75
2022-11-03T03:16:03.787Z,11.72
2022-11-03T03:18:53.276Z,11.71
2022-11-03T03:21:30.836Z,11.69
2022-11-03T03:24:05.765Z,11.66
2022-11-03T03:26:50.795Z,11.63
2022-11-03T03:29:22.240Z,11.65
2022-11-03T03:31:59.680Z,11.62
2022-11-03T03:34:37.316Z,11.62
2022-11-03T03:37:08.800Z,11.59
2022-11-03T03:39:42.395Z,11.58
2022-11-03T03:42:13.778Z,11.57
2022-11-03T03:44:44.190Z,11.55
2022-11-03T03:47:19.020Z,11.48
2022-11-03T03:49:49.721Z,11.44
2022-11-03T03:52:19.230Z,11.42
2022-11-03T03:54:47.939Z,11.36
2022-11-03T03:57:19.811Z,11.33
2022-11-03T03:59:49.120Z,11.29
2022-11-03T04:02:18.292Z,11.23
2022-11-03T04:04:46.880Z,11.18
2022-11-03T04:07:33.419Z,11.15
2022-11-03T04:10:01.875Z,11.13
2022-11-03T04:12:50.317Z,11.10
2022-11-03T04:15:36.801Z,11.08
2022-11-03T04:18:23.292Z,11.05
2022-11-03T04:21:09.802Z,10.99
2022-11-03T04:23:38.195Z,10.94
2022-11-03T04:26:12.662Z,10.93
2022-11-03T04:28:50.996Z,10.91
2022-11-03T04:31:20.635Z,10.89
2022-11-03T04:33:50.336Z,10.86
2022-11-03T04:36:22.881Z,10.83
2022-11-03T04:38:57.397Z,10.79
2022-11-03T04:41:32.482Z,10.78
2022-11-03T04:44:03.991Z,10.76
2022-11-03T04:46:42.142Z,10.72
2022-11-03T04:49:17.440Z,10.69
2022-11-03T04:51:49.262Z,10.65
2022-11-03T04:54:24.430Z,10.60
2022-11-03T04:56:57.257Z,10.53
2022-11-03T04:59:26.979Z,10.47
2022-11-03T05:01:55.610Z,10.46
2022-11-03T05:04:24.189Z,10.43
2022-11-03T05:07:01.971Z,10.38
2022-11-03T05:09:32.235Z,10.36
2022-11-03T05:12:02.717Z,10.37
2022-11-03T05:14:33.798Z,10.38
2022-11-03T05:17:03.670Z,10.40
2022-11-03T05:19:47.220Z,10.38
2022-11-03T05:22:26.267Z,10.36
2022-11-03T05:25:07.838Z,10.34
2022-11-03T05:27:42.206Z,10.33
2022-11-03T05:30:16.290Z,10.32
2022-11-03T05:32:45.385Z,10.30
2022-11-03T05:35:27.995Z,10.30
2022-11-03T05:37:59.815Z,10.27
2022-11-03T05:40:31.520Z,10.24
2022-11-03T05:43:04.709Z,10.21
2022-11-03T05:45:38.883Z,10.18
2022-11-03T05:48:23.363Z,10.15
2022-11-03T05:50:54.736Z,10.11
2022-11-03T05:53:34.881Z,10.10
2022-11-03T05:56:11.201Z,10.06
2022-11-03T05:58:42.160Z,10.03
2022-11-03T06:01:39.593Z,9.96
2022-11-03T06:04:21.621Z,9.89
2022-11-03T06:06:55.844Z,9.82
2022-11-03T06:09:26.425Z,9.80
2022-11-03T06:11:58.210Z,9.82
2022-11-03T06:14:39.495Z,9.83
2022-11-03T06:17:15.206Z,9.83
2022-11-03T06:19:50.545Z,9.80
2022-11-03T06:22:36.486Z,9.75
2022-11-03T06:25:32.641Z,9.68
2022-11-03T06:28:07.835Z,9.65
2022-11-03T06:33:29.929Z,9.60
2022-11-03T06:36:05.286Z,9.54
2022-11-03T06:38:36.501Z,9.51
2022-11-03T06:41:07.235Z,9.51
2022-11-03T06:43:43.839Z,9.46
2022-11-03T06:46:28.550Z,9.44
2022-11-03T06:49:01.643Z,9.41
2022-11-03T06:51:31.957Z,9.40
2022-11-03T06:54:01.468Z,9.42
2022-11-03T06:56:37.491Z,9.41
2022-11-03T06:59:15.307Z,9.41
2022-11-03T07:01:47.070Z,9.39
2022-11-03T07:04:45.120Z,9.38
2022-11-03T07:07:13.409Z,9.33
2022-11-03T07:09:41.914Z,9.29
2022-11-03T07:12:18.121Z,9.23
2022-11-03T07:14:46.516Z,9.21
2022-11-03T07:17:32.969Z,9.21
2022-11-03T07:20:01.279Z,9.21
2022-11-03T07:22:29.925Z,9.24
2022-11-03T07:25:18.053Z,9.24
2022-11-03T07:27:51.198Z,9.23
2022-11-03T07:30:22.863Z,9.23
2022-11-03T07:32:59.998Z,9.18
2022-11-03T07:36:13.136Z,9.13
2022-11-03T07:38:31.698Z,9.11
2022-11-03T07:41:04.637Z,9.11
2022-11-03T07:43:40.001Z,9.12
2022-11-03T07:46:16.504Z,9.11
2022-11-03T07:48:53.922Z,9.12
2022-11-03T07:51:32.966Z,9.12
2022-11-03T07:54:24.968Z,9.13
2022-11-03T07:57:05.480Z,9.11
2022-11-03T07:59:43.360Z,9.08
2022-11-03T08:02:26.309Z,9.04
2022-11-03T08:04:57.265Z,8.98
2022-11-03T08:07:34.796Z,8.95
2022-11-03T08:10:03.377Z,8.92
2022-11-03T08:12:31.611Z,8.85
2022-11-03T08:15:04.968Z,8.82
2022-11-03T08:17:36.010Z,8.79
2022-11-03T08:20:04.455Z,8.79
2022-11-03T08:22:34.445Z,8.77
2022-11-03T08:25:04.984Z,8.75
2022-11-03T08:27:36.290Z,8.75
2022-11-03T08:30:09.596Z,8.72
2022-11-03T08:32:38.082Z,8.71
2022-11-03T08:35:06.995Z,8.67
2022-11-03T08:37:37.766Z,8.66
2022-11-03T08:40:12.956Z,8.61
2022-11-03T08:42:43.976Z,8.50
2022-11-03T08:45:15.180Z,8.42
2022-11-03T08:47:47.919Z,8.41
2022-11-03T08:50:19.275Z,8.37
2022-11-03T08:52:50.413Z,8.41
2022-11-03T08:55:19.213Z,8.40
2022-11-03T08:57:50.675Z,8.42
2022-11-03T09:00:20.798Z,8.46
2022-11-03T09:02:49.156Z,8.57
2022-11-03T09:05:32.423Z,8.72
2022-11-03T09:10:52.301Z,8.98
2022-11-03T09:13:23.535Z,9.08
2022-11-03T09:15:54.900Z,9.15
2022-11-03T09:18:23.680Z,9.22
2022-11-03T09:20:55.066Z,9.26
2022-11-03T09:23:23.375Z,9.26
2022-11-03T09:25:51.690Z,9.24
2022-11-03T09:28:23.015Z,9.23
2022-11-03T09:30:54.401Z,9.17
2022-11-03T09:33:22.736Z,9.14
2022-11-03T09:35:51.075Z,9.09
2022-11-03T09:38:20.008Z,9.07
2022-11-03T09:40:56.978Z,9.06
2022-11-03T09:43:29.926Z,9.00
2022-11-03T09:46:03.975Z,8.93
2022-11-03T09:48:32.480Z,8.86
2022-11-03T09:51:03.344Z,8.83
2022-11-03T09:53:35.478Z,8.83
2022-11-03T09:56:06.395Z,8.83
2022-11-03T09:58:36.836Z,8.82
2022-11-03T10:01:07.099Z,8.82
2022-11-03T10:03:40.320Z,8.80
2022-11-03T10:06:12.464Z,8.78
2022-11-03T10:08:49.936Z,8.73
2022-11-03T10:11:22.717Z,8.70
2022-11-03T10:13:58.940Z,8.68
2022-11-03T10:16:29.102Z,8.62
2022-11-03T10:18:57.926Z,8.58
2022-11-03T10:21:35.041Z,8.53
2022-11-03T10:24:03.360Z,8.48
2022-11-03T10:26:50.525Z,8.43
2022-11-03T10:29:24.003Z,8.40
2022-11-03T10:32:00.480Z,8.40
2022-11-03T10:34:42.476Z,8.38
2022-11-03T10:37:26.400Z,8.39
2022-11-03T10:39:59.256Z,8.35
2022-11-03T10:42:35.653Z,8.31
2022-11-03T10:45:22.809Z,8.26
2022-11-03T10:48:14.239Z,8.24
2022-11-03T10:50:45.737Z,8.20
2022-11-03T10:55:54.637Z,8.13
2022-11-03T10:58:28.958Z,8.06
2022-11-03T11:00:57.338Z,8.05
2022-11-03T11:03:25.756Z,8.01
2022-11-03T11:05:59.360Z,7.95
2022-11-03T11:08:27.922Z,7.90
2022-11-03T11:10:56.321Z,7.85
2022-11-03T11:13:32.005Z,7.83
2022-11-03T11:16:06.721Z,7.79
2022-11-03T11:18:34.981Z,7.79
2022-11-03T11:21:23.276Z,7.79
2022-11-03T11:23:53.760Z,7.80
2022-11-03T11:26:31.204Z,7.79
2022-11-03T11:29:12.143Z,7.75
2022-11-03T11:31:41.764Z,7.80
2022-11-03T11:34:19.515Z,7.87
2022-11-03T11:37:12.007Z,7.95
2022-11-03T11:39:52.014Z,8.02
2022-11-03T11:42:22.108Z,8.10
2022-11-03T11:45:03.917Z,8.17
2022-11-03T11:47:49.081Z,8.25
2022-11-03T11:50:19.388Z,8.32
2022-11-03T11:52:55.201Z,8.36
2022-11-03T11:55:26.731Z,8.37
2022-11-03T11:57:59.616Z,8.39
2022-11-03T12:00:31.152Z,8.41
2022-11-03T12:03:02.078Z,8.41
2022-11-03T12:05:36.919Z,8.36
2022-11-03T12:08:17.895Z,8.30
2022-11-03T12:10:58.525Z,8.26
2022-11-03T12:13:54.282Z,8.20
2022-11-03T12:16:35.367Z,8.17
2022-11-03T12:19:43.045Z,8.14
2022-11-03T12:22:24.496Z,8.12
2022-11-03T12:24:58.666Z,8.09
2022-11-03T12:27:27.036Z,8.06
2022-11-03T12:30:02.431Z,8.01
2022-11-03T12:32:35.822Z,7.98
2022-11-03T12:35:14.470Z,7.95
2022-11-03T12:37:48.808Z,7.92
2022-11-03T12:40:23.311Z,7.90
2022-11-03T12:42:53.925Z,7.88
2022-11-03T12:45:29.576Z,7.82
2022-11-03T12:48:08.957Z,7.76
2022-11-03T12:50:43.035Z,7.70
2022-11-03T12:53:18.718Z,7.65
2022-11-03T12:55:57.057Z,7.63
2022-11-03T12:58:28.006Z,7.63
2022-11-03T13:01:01.391Z,7.59
2022-11-03T13:03:35.851Z,7.56
2022-11-03T13:06:06.410Z,7.53
2022-11-03T13:08:38.083Z,7.50
2022-11-03T13:11:30.226Z,7.47
2022-11-03T13:14:02.261Z,7.42
2022-11-03T13:16:30.560Z,7.41
2022-11-03T13:19:01.908Z,7.36
2022-11-03T13:21:36.305Z,7.30
2022-11-03T13:24:17.744Z,7.27
2022-11-03T13:26:51.340Z,7.24
2022-11-03T13:29:24.842Z,7.19
2022-11-03T13:31:58.115Z,7.14
2022-11-03T13:34:26.700Z,7.09
2022-11-03T13:36:59.820Z,7.04
2022-11-03T13:39:30.365Z,7.03
2022-11-03T13:42:01.904Z,7.01
2022-11-03T13:44:43.338Z,6.99
2022-11-03T13:47:24.008Z,6.98
2022-11-03T13:52:46.892Z,6.96
2022-11-03T14:00:54.902Z,6.90
2022-11-03T14:06:21.587Z,6.88
2022-11-03T14:08:52.787Z,6.87
2022-11-03T14:11:41.833Z,6.87
2022-11-03T14:14:18.252Z,6.80
2022-11-03T14:16:46.596Z,6.71
2022-11-03T14:19:21.319Z,6.70
2022-11-03T14:21:52.766Z,6.69
2022-11-03T14:24:30.838Z,6.71
2022-11-03T14:27:07.339Z,6.66
2022-11-03T14:29:50.409Z,6.63
2022-11-03T14:32:24.468Z,6.61
2022-11-03T14:35:00.196Z,6.58
2022-11-03T14:37:52.273Z,6.58
2022-11-03T14:40:41.099Z,6.56
2022-11-03T14:43:09.892Z,6.53
2022-11-03T14:45:41.483Z,6.50
2022-11-03T14:48:24.257Z,6.50
2022-11-03T14:50:56.683Z,6.50
2022-11-03T14:53:34.065Z,6.47
2022-11-03T14:56:02.395Z,6.44
2022-11-03T14:58:33.758Z,6.45
2022-11-03T15:01:04.548Z,6.48
2022-11-03T15:03:38.682Z,6.51
2022-11-03T15:06:07.480Z,6.55
2022-11-03T15:08:40.376Z,6.61
2022-11-03T15:11:12.230Z,6.61
2022-11-03T15:13:47.174Z,6.60
2022-11-03T15:16:27.445Z,6.56
2022-11-03T15:18:56.461Z,6.58
2022-11-03T15:21:30.826Z,6.64
2022-11-03T15:26:47.827Z,6.76
2022-11-03T15:29:18.543Z,6.83
2022-11-03T15:31:57.860Z,6.89
2022-11-03T15:34:34.081Z,6.97
2022-11-03T15:37:05.263Z,7.06
2022-11-03T15:39:33.601Z,7.14
2022-11-03T15:42:13.776Z,7.19
2022-11-03T15:44:51.299Z,7.26
2022-11-03T15:47:19.581Z,7.30
2022-11-03T15:49:57.286Z,7.37
2022-11-03T15:52:34.858Z,7.44
2022-11-03T15:55:09.077Z,7.52
2022-11-03T15:57:40.662Z,7.59
2022-11-03T16:00:25.000Z,7.68
2022-11-03T16:02:53.497Z,7.77
2022-11-03T16:05:25.414Z,7.87
2022-11-03T16:08:03.843Z,8.00
2022-11-03T16:10:36.591Z,8.10
2022-11-03T16:13:07.512Z,8.18
2022-11-03T16:15:35.827Z,8.27
2022-11-03T16:18:08.475Z,8.37
2022-11-03T16:20:43.464Z,8.51
2022-11-03T16:23:11.321Z,8.60
2022-11-03T16:25:44.142Z,8.70
2022-11-03T16:28:14.736Z,8.78
2022-11-03T16:30:49.696Z,8.85
2022-11-03T16:33:23.666Z,8.91
2022-11-03T16:36:03.925Z,8.97
2022-11-03T16:38:34.552Z,9.04
2022-11-03T16:41:06.062Z,9.08
2022-11-03T16:43:34.387Z,9.14
2022-11-03T16:46:09.742Z,9.20
2022-11-03T16:48:41.048Z,9.26
2022-11-03T16:51:09.431Z,9.34
2022-11-03T16:53:37.741Z,9.40
2022-11-03T16:56:14.026Z,9.47
2022-11-03T16:58:45.267Z,9.56
2022-11-03T17:01:13.673Z,9.62
2022-11-03T17:03:44.847Z,9.67
2022-11-03T17:06:17.642Z,9.72
2022-11-03T17:08:53.199Z,9.78
2022-11-03T17:11:39.137Z,9.83
2022-11-03T17:14:14.643Z,9.89
2022-11-03T17:16:46.422Z,9.94
2022-11-03T17:19:19.344Z,10.03
2022-11-03T17:21:53.426Z,10.09
2022-11-03T17:24:21.922Z,10.15
2022-11-03T17:27:25.263Z,10.22
2022-11-03T17:30:01.590Z,10.31
2022-11-03T17:32:44.823Z,10.38
2022-11-03T17:35:26.481Z,10.44
2022-11-03T17:37:57.476Z,10.48
2022-11-03T17:40:28.320Z,10.56
2022-11-03T17:43:00.442Z,10.62
2022-11-03T17:45:32.629Z,10.71
2022-11-03T17:48:00.956Z,10.76
2022-11-03T17:50:29.437Z,10.79
2022-11-03T17:53:00.746Z,10.83
2022-11-03T17:55:34.327Z,10.90
2022-11-03T17:58:11.386Z,10.95
2022-11-03T18:00:42.180Z,11.03
2022-11-03T18:03:15.911Z,11.07
2022-11-03T18:05:44.326Z,11.08
2022-11-03T18:08:14.232Z,11.12
2022-11-03T18:10:49.899Z,11.13
2022-11-03T18:13:23.757Z,11.19
2022-11-03T18:16:06.161Z,11.24
2022-11-03T18:18:43.503Z,11.30
2022-11-03T18:21:28.040Z,11.35
2022-11-03T18:23:56.952Z,11.41
2022-11-03T18:26:27.321Z,11.45
2022-11-03T18:29:00.672Z,11.53
2022-11-03T18:31:35.217Z,11.64
2022-11-03T18:34:07.140Z,11.70
2022-11-03T18:36:38.690Z,11.75
2022-11-03T18:39:07.186Z,11.77
2022-11-03T18:41:41.538Z,11.82
2022-11-03T18:44:20.146Z,11.84
2022-11-03T18:46:56.600Z,11.93
2022-11-03T18:49:28.259Z,12.10
2022-11-03T18:52:04.010Z,12.17
2022-11-03T18:54:34.190Z,12.19
2022-11-03T18:57:03.504Z,12.18
2022-11-03T18:59:40.631Z,12.22
2022-11-03T19:02:21.902Z,12.28
2022-11-03T19:04:50.706Z,12.34
2022-11-03T19:07:32.744Z,12.39
2022-11-03T19:10:06.880Z,12.47
2022-11-03T19:12:39.038Z,12.53
2022-11-03T19:15:11.228Z,12.62
2022-11-03T19:17:40.949Z,12.71
2022-11-03T19:20:16.463Z,12.76
2022-11-03T19:22:45.442Z,12.82
2022-11-03T19:25:16.322Z,12.90
2022-11-03T19:27:46.869Z,12.93
2022-11-03T19:30:19.151Z,12.94
2022-11-03T19:32:50.367Z,13.01
2022-11-03T19:35:22.994Z,13.11
2022-11-03T19:38:01.822Z,13.17
2022-11-03T19:40:30.942Z,13.22
2022-11-03T19:42:59.684Z,13.28
2022-11-03T19:45:32.184Z,13.31
2022-11-03T19:50:51.192Z,13.47
2022-11-03T19:53:31.935Z,13.47
2022-11-03T19:56:00.471Z,13.51
2022-11-03T19:58:38.500Z,13.63
2022-11-03T20:01:08.820Z,13.72
2022-11-03T20:03:38.441Z,13.73
2022-11-03T20:06:08.604Z,13.75
2022-11-03T20:08:38.863Z,13.76
2022-11-03T20:11:10.343Z,13.84
2022-11-03T20:13:42.750Z,13.87
2022-11-03T20:16:21.508Z,13.96
2022-11-03T20:18:49.847Z,14.07
2022-11-03T20:21:21.100Z,14.17
2022-11-03T20:23:50.385Z,14.23
2022-11-03T20:26:23.686Z,14.24
2022-11-03T20:28:54.710Z,14.31
2022-11-03T20:31:23.170Z,14.42
2022-11-03T20:33:51.985Z,14.55
2022-11-03T20:36:21.906Z,14.52
2022-11-03T20:39:00.109Z,14.55
2022-11-03T20:41:31.124Z,14.65
2022-11-03T20:44:00.303Z,14.63
2022-11-03T20:46:34.548Z,14.69
2022-11-03T20:49:02.867Z,14.74
2022-11-03T20:51:40.260Z,14.79
2022-11-03T20:54:18.064Z,14.75
2022-11-03T20:56:48.906Z,14.75
2022-11-03T20:59:21.434Z,14.84
2022-11-03T21:01:51.201Z,14.95
2022-11-03T21:04:21.585Z,15.07
2022-11-03T21:06:50.072Z,15.14
2022-11-03T21:09:20.246Z,15.23
2022-11-03T21:11:58.341Z,15.34
2022-11-03T21:14:31.021Z,15.45
2022-11-03T21:17:17.649Z,15.55
2022-11-03T21:20:01.098Z,15.61
2022-11-03T21:22:54.480Z,15.68
2022-11-03T21:25:26.501Z,15.77
2022-11-03T21:27:58.391Z,15.82
2022-11-03T21:30:26.710Z,15.89
2022-11-03T21:32:55.327Z,15.97
2022-11-03T21:35:24.045Z,16.17
2022-11-03T21:37:56.762Z,16.28
2022-11-03T21:40:25.050Z,16.44
2022-11-03T21:43:13.141Z,16.49
2022-11-03T21:45:41.600Z,16.63
2022-11-03T21:48:28.467Z,16.75
2022-11-03T21:51:02.777Z,16.84
2022-11-03T21:53:34.113Z,16.89
2022-11-03T21:56:02.405Z,16.96
2022-11-03T21:58:30.842Z,17.15
2022-11-03T22:01:04.816Z,17.18
2022-11-03T22:03:34.117Z,17.25
2022-11-03T22:06:11.187Z,17.44
2022-11-03T22:08:39.811Z,17.54
2022-11-03T22:11:24.497Z,17.46
2022-11-03T22:14:03.276Z,17.34
2022-11-03T22:16:43.790Z,17.22
2022-11-03T22:19:38.737Z,17.29
2022-11-03T22:22:34.836Z,17.29
2022-11-03T22:25:21.421Z,17.25
2022-11-03T22:27:52.444Z,17.18
2022-11-03T22:30:38.996Z,17.17
2022-11-03T22:33:07.511Z,16.97
2022-11-03T22:35:54.351Z,16.88
2022-11-03T22:38:45.250Z,16.86
2022-11-03T22:41:32.055Z,16.88
2022-11-03T22:44:21.387Z,16.94
2022-11-03T22:46:53.897Z,16.89
2022-11-03T22:49:22.227Z,16.83
2022-11-03T22:51:50.546Z,16.73
2022-11-03T22:54:19.031Z,16.49
2022-11-03T22:56:47.396Z,16.29
2022-11-03T22:59:15.822Z,16.08
2022-11-03T23:01:44.210Z,15.94
2022-11-03T23:04:12.621Z,15.85
2022-11-03T23:06:47.276Z,15.83
2022-11-03T23:09:15.822Z,15.79
2022-11-03T23:11:51.721Z,15.72
2022-11-03T23:14:21.921Z,15.67
2022-11-03T23:16:52.479Z,15.57
2022-11-03T23:19:39.342Z,15.49
2022-11-03T23:22:10.183Z,15.38
2022-11-03T23:24:56.809Z,15.31
2022-11-03T23:27:25.109Z,15.23
2022-11-03T23:29:53.591Z,15.16
2022-11-03T23:32:22.045Z,15.09
2022-11-03T23:34:51.027Z,15.03
2022-11-03T23:37:19.352Z,14.98
2022-11-03T23:39:47.684Z,14.95
2022-11-03T23:42:15.946Z,14.94
2022-11-03T23:45:02.827Z,14.91
2022-11-03T23:47:51.722Z,14.92
2022-11-03T23:50:20.606Z,14.90
2022-11-03T23:52:48.951Z,14.87
2022-11-03T23:55:17.426Z,14.85
2022-11-03T23:58:04.101Z,14.79
